Time;durP1;ratioP1;P1;durP2;ratioP2;P2;SDS_P1;SDS_P2;PMS_P1;PMS_P2;Temp;Humidity;BMP_temperature;BMP_pressure;BME280_temperature;BME280_humidity;BME280_pressure;Samples;Min_cycle;Max_cycle;Signal;HPM_P1;HPM_P2
2023/05/30 00:28:28;;;;;;;4.93;2.87;;;15.10;77.40;;;;;;4813581;29;20212;-86
2023/05/30 00:53:49;;;;;;;5.23;2.70;;;15.00;75.70;;;;;;4797634;29;20266;-83
2023/05/30 01:18:48;;;;;;;4.40;2.83;;;14.90;76.60;;;;;;4590577;30;20644;-85
2023/05/30 01:34:30;;;;;;;8.77;2.97;;;14.70;77.10;;;;;;4823216;29;20253;-85
2023/05/30 01:54:58;;;;;;;5.13;2.50;;;14.40;75.60;;;;;;4629699;30;20697;-82
2023/05/30 02:25:06;;;;;;;4.33;2.47;;;14.00;76.80;;;;;;4753558;29;20253;-86
2023/05/30 02:45:05;;;;;;;5.73;2.90;;;13.70;77.70;;;;;;4682393;30;20446;-85
2023/05/30 03:10:44;;;;;;;4.90;2.10;;;13.50;79.80;;;;;;4713207;30;20230;-84
2023/05/30 03:51:03;;;;;;;7.83;3.13;;;13.10;83.30;;;;;;4838619;28;20791;-81
2023/05/30 04:55:52;;;;;;;7.17;3.10;;;14.30;82.90;;;;;;4565424;30;20322;-82
2023/05/30 05:21:17;;;;;;;5.87;3.00;;;14.60;82.90;;;;;;4715440;29;20930;-85
2023/05/30 05:51:12;;;;;;;6.37;2.77;;;15.80;80.00;;;;;;4598977;30;20766;-85
2023/05/30 06:42:30;;;;;;;6.27;2.70;;;17.20;73.00;;;;;;4856466;28;20713;-84
2023/05/30 07:02:55;;;;;;;8.00;2.87;;;17.60;65.40;;;;;;4739612;29;21074;-82
2023/05/30 07:33:15;;;;;;;6.27;2.60;;;18.40;54.30;;;;;;4703023;29;20678;-84
2023/05/30 08:03:26;;;;;;;4.20;2.03;;;19.30;49.80;;;;;;4589228;29;20241;-83
2023/05/30 08:24:08;;;;;;;4.30;2.57;;;19.10;47.50;;;;;;4509922;30;21197;-85
2023/05/30 08:49:03;;;;;;;6.23;2.10;;;19.10;48.40;;;;;;4546742;30;20885;-81
2023/05/30 09:14:54;;;;;;;3.73;1.93;;;19.80;46.80;;;;;;4796311;28;21087;-82
2023/05/30 09:19:15;;;;;;;6.17;2.13;;;20.00;46.20;;;;;;4750013;29;20516;-82
2023/05/30 09:34:56;;;;;;;6.87;2.10;;;19.90;46.40;;;;;;4756510;28;20433;-83
2023/05/30 10:00:33;;;;;;;5.57;2.43;;;19.60;45.50;;;;;;4846931;28;21128;-82
2023/05/30 10:20:51;;;;;;;8.70;2.80;;;19.60;45.70;;;;;;4711498;29;20559;-82
2023/05/30 10:25:11;;;;;;;6.43;2.60;;;19.80;44.90;;;;;;4645545;29;21247;-85
2023/05/30 10:51:05;;;;;;;4.10;2.50;;;19.90;43.80;;;;;;4664673;29;20603;-82
2023/05/30 11:52:00;;;;;;;2.50;1.70;;;20.00;38.30;;;;;;4608065;30;20844;-85
2023/05/30 12:22:17;;;;;;;2.53;1.83;;;20.80;38.60;;;;;;4876577;28;20774;-84
2023/05/30 12:42:48;;;;;;;4.90;1.80;;;21.30;38.70;;;;;;4816142;28;20354;-86
2023/05/30 13:32:52;;;;;;;4.40;1.80;;;23.00;36.60;;;;;;4704851;30;20230;-83
2023/05/30 13:53:24;;;;;;;2.08;1.50;;;23.80;36.20;;;;;;4633100;30;20546;-82
2023/05/30 14:23:37;;;;;;;3.05;1.88;;;28.20;36.50;;;;;;4865918;29;20221;-84
2023/05/30 14:44:31;;;;;;;3.08;1.75;;;27.20;35.40;;;;;;4744837;29;20320;-86
2023/05/30 15:19:22;;;;;;;3.03;1.50;;;27.00;34.70;;;;;;4798516;29;20525;-84
2023/05/30 15:39:41;;;;;;;3.92;1.58;;;27.40;35.40;;;;;;4788790;29;20734;-82
2023/05/30 16:05:44;;;;;;;3.22;1.20;;;25.10;35.30;;;;;;4757182;29;20677;-84
2023/05/30 16:10:04;;;;;;;1.88;1.30;;;23.60;36.50;;;;;;4778167;29;20581;-84
2023/05/30 16:26:11;;;;;;;4.60;1.50;;;21.50;37.80;;;;;;4942245;28;20350;-81
2023/05/30 16:30:22;;;;;;;2.67;1.67;;;21.50;37.40;;;;;;4886333;29;20627;-84
2023/05/30 16:51:18;;;;;;;2.57;2.00;;;21.00;37.80;;;;;;4893516;29;20218;-83
2023/05/30 17:46:46;;;;;;;4.40;2.10;;;19.90;40.30;;;;;;4731323;30;20297;-82
2023/05/30 18:12:23;;;;;;;3.87;2.07;;;19.40;41.00;;;;;;4726176;30;20212;-83
2023/05/30 18:42:13;;;;;;;4.60;2.40;;;18.60;43.10;;;;;;4835226;29;20226;-88
2023/05/30 19:08:01;;;;;;;5.63;2.67;;;17.90;44.20;;;;;;4942606;29;20237;-84
2023/05/30 19:28:10;;;;;;;5.87;3.17;;;17.40;46.00;;;;;;4911615;29;20228;-84
2023/05/30 19:53:44;;;;;;;5.27;2.97;;;17.10;46.90;;;;;;4895712;29;20193;-84
2023/05/30 21:04:45;;;;;;;3.93;2.90;;;15.90;68.00;;;;;;4690876;30;20505;-83
2023/05/30 21:30:14;;;;;;;4.43;3.00;;;15.40;73.40;;;;;;4804770;29;20342;-82
2023/05/30 21:55:17;;;;;;;6.83;3.37;;;15.00;75.40;;;;;;4797598;29;20684;-81
2023/05/30 22:10:37;;;;;;;5.70;2.83;;;15.00;75.20;;;;;;4716810;30;20286;-83
2023/05/30 22:31:07;;;;;;;5.27;3.10;;;14.50;76.70;;;;;;4789988;29;20370;-83
2023/05/30 22:51:35;;;;;;;7.70;3.33;;;14.10;78.50;;;;;;4776312;29;20262;-82
2023/05/30 22:55:46;;;;;;;5.70;2.90;;;14.00;78.20;;;;;;4756099;29;20555;-82
2023/05/30 23:21:12;;;;;;;5.20;3.10;;;13.40;79.80;;;;;;4755148;30;20234;-82
2023/05/30 23:52:10;;;;;;;6.40;3.13;;;12.70;81.90;;;;;;4798535;29;20243;-83
